Time;durP1;ratioP1;P1;durP2;ratioP2;P2;SDS_P1;SDS_P2;PMS_P1;PMS_P2;Temp;Humidity;BMP_temperature;BMP_pressure;BME280_temperature;BME280_humidity;BME280_pressure;Samples;Min_cycle;Max_cycle;Signal;HPM_P1;HPM_P2
2022/11/04 00:01:15;;;;;;;;;;;17.80;93.40;;;;;;5108009;28;19934;-66
2022/11/04 00:03:41;;;;;;;;;;;18.00;93.60;;;;;;5112684;28;19924;-66
2022/11/04 00:06:07;;;;;;;;;;;18.10;93.60;;;;;;5100308;28;19920;-66
2022/11/04 00:08:32;;;;;;;;;;;17.70;93.30;;;;;;5103393;28;19927;-66
2022/11/04 00:13:42;;;;;;;;;;;17.70;93.30;;;;;;5111263;28;20338;-66
2022/11/04 00:18:52;;;;;;;;;;;17.80;93.20;;;;;;5112566;28;19932;-66
2022/11/04 00:29:31;;;;;;;;;;;18.00;93.40;;;;;;5112299;28;20407;-66
2022/11/04 00:34:40;;;;;;;;;;;17.80;93.40;;;;;;5111507;28;20072;-66
2022/11/04 00:37:06;;;;;;;;;;;17.80;93.50;;;;;;5114175;28;20002;-66
2022/11/04 00:39:31;;;;;;;;;;;17.90;93.40;;;;;;5107962;28;20374;-66
2022/11/04 00:41:57;;;;;;;;;;;17.80;93.40;;;;;;5102486;28;19936;-66
2022/11/04 00:44:23;;;;;;;;;;;17.80;93.40;;;;;;5093933;28;20002;-66
2022/11/04 00:46:48;;;;;;;;;;;17.80;93.50;;;;;;5095583;28;20295;-66
2022/11/04 00:49:14;;;;;;;;;;;17.80;93.50;;;;;;5111950;28;19930;-66
2022/11/04 00:51:39;;;;;;;;;;;17.90;93.50;;;;;;5115035;28;20002;-66
2022/11/04 00:54:05;;;;;;;;;;;17.60;93.40;;;;;;5112434;28;19928;-66
2022/11/04 00:56:31;;;;;;;;;;;17.80;93.50;;;;;;5108991;28;19924;-66
2022/11/04 00:58:59;;;;;;;;;;;17.80;93.40;;;;;;5105967;28;19934;-66
2022/11/04 01:01:25;;;;;;;;;;;17.80;93.00;;;;;;5117522;28;19928;-66
2022/11/04 01:03:52;;;;;;;;;;;18.00;93.40;;;;;;5115254;28;20383;-66
2022/11/04 01:06:18;;;;;;;;;;;17.70;93.00;;;;;;5115500;28;20322;-67
2022/11/04 01:08:44;;;;;;;;;;;18.00;93.50;;;;;;5113176;28;20396;-66
2022/11/04 01:11:09;;;;;;;;;;;17.90;93.50;;;;;;5104273;28;19934;-66
2022/11/04 01:13:35;;;;;;;;;;;17.70;93.40;;;;;;5097904;28;19935;-66
2022/11/04 01:16:02;;;;;;;;;;;17.80;93.60;;;;;;5117497;28;19924;-66
2022/11/04 01:18:28;;;;;;;;;;;17.90;93.60;;;;;;5115732;28;19967;-66
2022/11/04 01:20:54;;;;;;;;;;;17.80;93.40;;;;;;5116257;28;20323;-66
2022/11/04 01:23:19;;;;;;;;;;;17.80;93.40;;;;;;5094064;28;19970;-67
2022/11/04 01:25:45;;;;;;;;;;;17.70;93.40;;;;;;5115056;28;19973;-67
2022/11/04 01:28:11;;;;;;;;;;;17.70;93.40;;;;;;5114558;28;20427;-67
2022/11/04 01:30:37;;;;;;;;;;;17.70;93.60;;;;;;5114653;28;19923;-66
2022/11/04 01:33:03;;;;;;;;;;;17.60;93.50;;;;;;5113491;27;19969;-66
2022/11/04 01:35:29;;;;;;;;;;;17.70;93.60;;;;;;5115752;28;20368;-66
2022/11/04 01:37:55;;;;;;;;;;;17.80;93.70;;;;;;5115453;27;19923;-66
2022/11/04 01:40:20;;;;;;;;;;;17.90;93.50;;;;;;5097516;28;20014;-66
2022/11/04 01:42:46;;;;;;;;;;;17.80;93.50;;;;;;5113717;28;19924;-66
2022/11/04 01:45:13;;;;;;;;;;;18.00;93.60;;;;;;5115265;28;19930;-67
2022/11/04 01:48:02;;;;;;;;;;;17.90;93.80;;;;;;5115192;28;19931;-66
2022/11/04 01:50:28;;;;;;;;;;;17.70;93.10;;;;;;5086945;28;20389;-66
2022/11/04 01:52:54;;;;;;;;;;;17.60;93.40;;;;;;5107741;28;20297;-66
2022/11/04 01:55:21;;;;;;;;;;;17.80;93.70;;;;;;5103407;28;19931;-66
2022/11/04 01:57:47;;;;;;;;;;;17.50;93.40;;;;;;5106034;28;19924;-66
2022/11/04 02:00:13;;;;;;;;;;;17.90;93.80;;;;;;5115502;28;19924;-67
2022/11/04 02:02:42;;;;;;;;;;;17.80;93.60;;;;;;5112053;28;20290;-66
2022/11/04 02:05:08;;;;;;;;;;;17.70;93.70;;;;;;5089868;28;20277;-66
2022/11/04 02:07:34;;;;;;;;;;;17.90;93.60;;;;;;5116522;28;19925;-66
2022/11/04 02:09:59;;;;;;;;;;;17.90;93.70;;;;;;5112842;28;19923;-66
2022/11/04 02:15:09;;;;;;;;;;;17.50;93.40;;;;;;5111837;28;20011;-66
2022/11/04 02:17:37;;;;;;;;;;;17.90;93.60;;;;;;5115294;28;19967;-66
2022/11/04 02:20:09;;;;;;;;;;;17.90;93.80;;;;;;5113523;28;20377;-67
2022/11/04 02:22:53;;;;;;;;;;;17.70;93.10;;;;;;5112002;28;19974;-67
2022/11/04 02:25:22;;;;;;;;;;;17.90;93.50;;;;;;5112985;28;19931;-66
2022/11/04 02:28:07;;;;;;;;;;;17.60;93.10;;;;;;5114089;28;19932;-66
2022/11/04 02:30:39;;;;;;;;;;;17.90;93.20;;;;;;5115630;28;20006;-66
2022/11/04 02:33:34;;;;;;;;;;;17.60;93.50;;;;;;5112692;28;20425;-66
2022/11/04 02:36:00;;;;;;;;;;;17.90;93.50;;;;;;5066429;28;19947;-66
2022/11/04 02:38:44;;;;;;;;;;;17.80;93.60;;;;;;5056973;28;19924;-66
2022/11/04 02:41:15;;;;;;;;;;;17.70;93.50;;;;;;5068678;28;19924;-66
2022/11/04 02:43:49;;;;;;;;;;;17.90;92.90;;;;;;5090292;28;20368;-66
2022/11/04 02:46:15;;;;;;;;;;;17.70;93.10;;;;;;5075947;28;19925;-66
2022/11/04 02:48:44;;;;;;;;;;;17.80;93.50;;;;;;5075351;28;20003;-66
2022/11/04 02:51:12;;;;;;;;;;;17.70;93.70;;;;;;5075950;28;19931;-66
2022/11/04 02:53:39;;;;;;;;;;;17.60;93.70;;;;;;5075051;28;19985;-66
2022/11/04 02:56:05;;;;;;;;;;;17.60;93.40;;;;;;5071329;28;19981;-66
2022/11/04 02:58:37;;;;;;;;;;;17.50;93.60;;;;;;5039403;28;20011;-67
2022/11/04 03:01:03;;;;;;;;;;;17.50;93.00;;;;;;5076191;28;19924;-66
2022/11/04 03:03:34;;;;;;;;;;;17.80;93.50;;;;;;5072469;28;19957;-67
2022/11/04 03:06:00;;;;;;;;;;;17.70;93.40;;;;;;5038319;28;20434;-67
2022/11/04 03:08:45;;;;;;;;;;;17.80;93.50;;;;;;5059272;28;19928;-66
2022/11/04 03:11:11;;;;;;;;;;;17.60;93.40;;;;;;5057938;28;19958;-66
2022/11/04 03:13:41;;;;;;;;;;;17.80;93.40;;;;;;5099623;28;20335;-66
2022/11/04 03:16:09;;;;;;;;;;;17.60;93.40;;;;;;5091563;28;20020;-66
2022/11/04 03:18:54;;;;;;;;;;;17.70;93.60;;;;;;5095852;28;19928;-67
2022/11/04 03:21:19;;;;;;;;;;;17.80;93.00;;;;;;5113573;28;19924;-66
2022/11/04 03:23:45;;;;;;;;;;;17.70;93.40;;;;;;5091234;28;19931;-67
2022/11/04 03:26:12;;;;;;;;;;;17.80;93.40;;;;;;5110092;27;19924;-67
2022/11/04 03:28:42;;;;;;;;;;;17.40;93.30;;;;;;5109697;28;19939;-67
2022/11/04 03:31:09;;;;;;;;;;;17.70;93.60;;;;;;5076205;28;19931;-67
2022/11/04 03:33:39;;;;;;;;;;;17.50;93.30;;;;;;5105628;28;19923;-66
2022/11/04 03:36:07;;;;;;;;;;;;;;;;;;5111312;28;20559;-67
2022/11/04 03:38:33;;;;;;;;;;;17.60;93.30;;;;;;5112482;28;19959;-66
2022/11/04 03:40:59;;;;;;;;;;;17.50;93.60;;;;;;5113490;28;19924;-66
2022/11/04 03:43:26;;;;;;;;;;;17.50;93.30;;;;;;5105580;27;19932;-66
2022/11/04 03:45:51;;;;;;;;;;;17.60;93.40;;;;;;5109354;27;20393;-66
2022/11/04 03:48:17;;;;;;;;;;;17.40;93.30;;;;;;5078050;28;19930;-66
2022/11/04 03:50:43;;;;;;;;;;;17.30;93.50;;;;;;5114311;28;19924;-66
2022/11/04 03:53:09;;;;;;;;;;;17.80;93.40;;;;;;5107028;27;20293;-67
2022/11/04 03:55:44;;;;;;;;;;;17.30;93.30;;;;;;5109478;28;19928;-67
2022/11/04 03:58:19;;;;;;;;;;;17.50;93.00;;;;;;5112438;28;19923;-67
2022/11/04 04:01:04;;;;;;;;;;;17.70;93.50;;;;;;5112890;28;20297;-66
2022/11/04 04:03:31;;;;;;;;;;;17.70;93.40;;;;;;5085403;28;19954;-67
2022/11/04 04:06:08;;;;;;;;;;;17.70;93.40;;;;;;5110785;28;19969;-67
2022/11/04 04:08:34;;;;;;;;;;;17.60;93.40;;;;;;5095948;28;19954;-66
2022/11/04 04:11:05;;;;;;;;;;;17.40;93.40;;;;;;5111310;28;19990;-67
2022/11/04 04:13:44;;;;;;;;;;;17.60;93.40;;;;;;5109663;28;20356;-67
2022/11/04 04:16:17;;;;;;;;;;;17.80;93.40;;;;;;5109684;28;19924;-66
2022/11/04 04:18:53;;;;;;;;;;;17.60;93.00;;;;;;5095087;28;19965;-67
2022/11/04 04:21:20;;;;;;;;;;;17.70;93.40;;;;;;5108421;28;19924;-67
2022/11/04 04:29:15;;;;;;;;;;;17.80;93.40;;;;;;5099672;28;20313;-67
2022/11/04 04:31:49;;;;;;;;;;;17.70;93.50;;;;;;5116790;28;19949;-66
2022/11/04 04:34:19;;;;;;;;;;;17.50;93.30;;;;;;5115721;28;20027;-66
2022/11/04 04:36:49;;;;;;;;;;;17.60;93.00;;;;;;5114463;28;19927;-66
2022/11/04 04:45:03;;;;;;;;;;;17.50;93.00;;;;;;5081864;28;20041;-66
2022/11/04 04:47:46;;;;;;;;;;;17.50;93.30;;;;;;5101150;28;19930;-66
2022/11/04 04:50:13;;;;;;;;;;;17.50;93.30;;;;;;5095827;28;19984;-66
2022/11/04 04:52:39;;;;;;;;;;;17.60;93.60;;;;;;5114573;28;19924;-66
2022/11/04 04:55:05;;;;;;;;;;;17.60;93.30;;;;;;5115091;28;19935;-66
2022/11/04 04:57:31;;;;;;;;;;;17.70;93.40;;;;;;5116480;28;20284;-66
2022/11/04 04:59:56;;;;;;;;;;;18.00;93.40;;;;;;5111367;28;19923;-66
2022/11/04 05:02:22;;;;;;;;;;;17.70;93.50;;;;;;5116079;28;19923;-66
2022/11/04 05:04:47;;;;;;;;;;;17.90;93.60;;;;;;5116528;28;20372;-66
2022/11/04 05:07:13;;;;;;;;;;;17.70;93.50;;;;;;5116793;28;19930;-66
2022/11/04 05:09:39;;;;;;;;;;;17.60;93.50;;;;;;5115343;28;20010;-66
2022/11/04 05:12:04;;;;;;;;;;;17.60;93.40;;;;;;5103964;28;19989;-66
2022/11/04 05:14:30;;;;;;;;;;;17.70;93.50;;;;;;5097085;28;20014;-66
2022/11/04 05:16:55;;;;;;;;;;;17.90;93.50;;;;;;5110316;28;19934;-66
2022/11/04 05:19:21;;;;;;;;;;;17.50;93.50;;;;;;5115857;28;20307;-66
2022/11/04 05:21:47;;;;;;;;;;;17.60;93.40;;;;;;5114577;28;20003;-67
2022/11/04 05:24:12;;;;;;;;;;;17.70;93.50;;;;;;5117361;28;19923;-66
2022/11/04 05:26:38;;;;;;;;;;;17.70;93.50;;;;;;5115247;28;20323;-66
2022/11/04 05:29:04;;;;;;;;;;;17.50;93.40;;;;;;5111112;28;20385;-66
2022/11/04 05:31:29;;;;;;;;;;;17.60;93.40;;;;;;5113075;28;19968;-66
2022/11/04 05:33:55;;;;;;;;;;;17.60;93.60;;;;;;5117076;28;19953;-66
2022/11/04 05:36:21;;;;;;;;;;;17.60;93.40;;;;;;5114378;28;19924;-66
2022/11/04 05:38:50;;;;;;;;;;;17.70;93.60;;;;;;5116875;28;19931;-67
2022/11/04 05:41:24;;;;;;;;;;;17.70;93.40;;;;;;5112847;28;20498;-66
2022/11/04 05:43:53;;;;;;;;;;;17.70;93.60;;;;;;5096229;28;19972;-66
2022/11/04 05:46:19;;;;;;;;;;;;;;;;;;5096741;28;20319;-66
2022/11/04 05:48:45;;;;;;;;;;;17.70;93.40;;;;;;5114589;28;19978;-66
2022/11/04 05:51:14;;;;;;;;;;;17.70;93.40;;;;;;5112794;28;19963;-66
2022/11/04 05:53:40;;;;;;;;;;;17.80;93.40;;;;;;5110535;28;19924;-66
2022/11/04 05:56:05;;;;;;;;;;;17.60;93.40;;;;;;5113747;28;19992;-67
2022/11/04 05:58:31;;;;;;;;;;;17.50;93.40;;;;;;5113179;28;19924;-67
2022/11/04 06:01:13;;;;;;;;;;;17.60;93.60;;;;;;5098127;28;20005;-66
2022/11/04 06:03:38;;;;;;;;;;;17.70;93.50;;;;;;5110042;28;20388;-66
2022/11/04 06:06:04;;;;;;;;;;;17.60;93.40;;;;;;5113294;28;19931;-66
2022/11/04 06:08:30;;;;;;;;;;;17.40;93.40;;;;;;5110197;28;19969;-66
2022/11/04 06:10:56;;;;;;;;;;;17.80;93.70;;;;;;5094760;28;19935;-66
2022/11/04 06:13:21;;;;;;;;;;;17.60;93.40;;;;;;5089506;28;20347;-66
2022/11/04 06:15:47;;;;;;;;;;;17.60;93.60;;;;;;5113684;28;19931;-66
2022/11/04 06:18:13;;;;;;;;;;;17.50;93.50;;;;;;5115073;28;19923;-66
2022/11/04 06:20:38;;;;;;;;;;;17.60;93.40;;;;;;5104737;28;20335;-66
2022/11/04 06:23:04;;;;;;;;;;;17.50;93.40;;;;;;5112470;28;19997;-66
2022/11/04 06:25:29;;;;;;;;;;;17.70;93.40;;;;;;5112464;28;20433;-67
2022/11/04 06:27:55;;;;;;;;;;;17.80;93.50;;;;;;5112867;28;19967;-67
2022/11/04 06:30:22;;;;;;;;;;;17.60;93.50;;;;;;5112913;28;20015;-66
2022/11/04 06:32:48;;;;;;;;;;;17.50;93.40;;;;;;5111869;28;20325;-67
2022/11/04 06:35:13;;;;;;;;;;;17.50;93.40;;;;;;5113299;28;20018;-66
2022/11/04 06:37:39;;;;;;;;;;;17.70;93.60;;;;;;5095913;28;19969;-67
2022/11/04 06:40:05;;;;;;;;;;;17.50;93.40;;;;;;5103511;28;19996;-66
2022/11/04 06:42:30;;;;;;;;;;;17.40;93.30;;;;;;5114716;27;19924;-66
2022/11/04 06:44:56;;;;;;;;;;;17.60;93.50;;;;;;5113537;28;20426;-67
2022/11/04 06:47:22;;;;;;;;;;;17.50;93.50;;;;;;5114982;28;19969;-66
2022/11/04 06:49:47;;;;;;;;;;;17.70;93.50;;;;;;5113542;28;19923;-66
2022/11/04 06:52:13;;;;;;;;;;;17.70;93.50;;;;;;5097421;28;19927;-66
2022/11/04 06:54:38;;;;;;;;;;;17.80;93.50;;;;;;5112212;28;19931;-66
2022/11/04 06:57:04;;;;;;;;;;;17.60;93.40;;;;;;5112835;28;19931;-66
2022/11/04 06:59:30;;;;;;;;;;;17.50;93.40;;;;;;5112297;28;19923;-67
2022/11/04 07:01:55;;;;;;;;;;;17.40;93.40;;;;;;5114303;28;19927;-66
2022/11/04 07:04:21;;;;;;;;;;;17.70;93.40;;;;;;5108151;28;20335;-66
2022/11/04 07:06:47;;;;;;;;;;;17.50;93.40;;;;;;5113019;28;20368;-66
2022/11/04 07:09:13;;;;;;;;;;;17.80;93.60;;;;;;5115175;28;20006;-66
2022/11/04 07:11:38;;;;;;;;;;;17.50;93.40;;;;;;5112611;28;20065;-66
2022/11/04 07:14:04;;;;;;;;;;;17.20;93.30;;;;;;5094380;28;20015;-67
2022/11/04 07:16:30;;;;;;;;;;;;;;;;;;5111508;28;19931;-67
2022/11/04 07:18:56;;;;;;;;;;;17.60;92.80;;;;;;5113244;28;20241;-66
2022/11/04 07:21:21;;;;;;;;;;;17.60;93.40;;;;;;5112386;28;20365;-67
2022/11/04 07:23:47;;;;;;;;;;;17.60;93.30;;;;;;5115002;28;19923;-66
2022/11/04 07:26:13;;;;;;;;;;;17.80;93.40;;;;;;5113613;28;19924;-66
2022/11/04 07:28:39;;;;;;;;;;;17.80;93.40;;;;;;5113248;28;19931;-66
2022/11/04 07:31:05;;;;;;;;;;;17.90;93.40;;;;;;5113045;28;19976;-66
2022/11/04 07:33:32;;;;;;;;;;;17.80;93.50;;;;;;5079744;28;20347;-66
2022/11/04 07:35:58;;;;;;;;;;;18.00;93.60;;;;;;5114033;28;19930;-66
2022/11/04 07:38:24;;;;;;;;;;;17.80;93.30;;;;;;5096408;28;20392;-66
2022/11/04 07:40:49;;;;;;;;;;;17.60;93.30;;;;;;5113518;28;19977;-65
2022/11/04 07:43:15;;;;;;;;;;;17.40;93.20;;;;;;5114707;28;19924;-66
2022/11/04 07:45:41;;;;;;;;;;;17.60;93.20;;;;;;5095583;28;20330;-66
2022/11/04 07:48:06;;;;;;;;;;;17.80;93.40;;;;;;5096785;28;20007;-66
2022/11/04 07:50:32;;;;;;;;;;;18.00;93.40;;;;;;5115063;28;20395;-66
2022/11/04 07:52:58;;;;;;;;;;;17.60;93.10;;;;;;5113008;28;19927;-68
2022/11/04 07:55:24;;;;;;;;;;;17.60;93.30;;;;;;5095084;28;19931;-68
2022/11/04 07:57:49;;;;;;;;;;;17.90;93.20;;;;;;5113611;28;19924;-68
2022/11/04 08:00:15;;;;;;;;;;;17.70;93.20;;;;;;5114789;28;19961;-67
2022/11/04 08:02:43;;;;;;;;;;;17.80;93.20;;;;;;5112932;28;19930;-68
2022/11/04 08:05:08;;;;;;;;;;;18.10;93.50;;;;;;5114237;28;19977;-67
2022/11/04 08:07:34;;;;;;;;;;;18.00;93.30;;;;;;5112893;28;19932;-67
2022/11/04 08:10:00;;;;;;;;;;;18.00;93.30;;;;;;5112338;28;19927;-67
2022/11/04 08:12:26;;;;;;;;;;;17.90;93.30;;;;;;5112784;28;20418;-67
2022/11/04 08:14:52;;;;;;;;;;;18.10;93.10;;;;;;5109315;28;20349;-66
2022/11/04 08:17:18;;;;;;;;;;;18.00;92.90;;;;;;5111302;28;20010;-67
2022/11/04 08:19:43;;;;;;;;;;;18.10;93.00;;;;;;5093606;28;19968;-68
2022/11/04 08:22:09;;;;;;;;;;;18.10;92.80;;;;;;5092473;28;20018;-68
2022/11/04 08:24:34;;;;;;;;;;;18.10;92.90;;;;;;5109370;28;19928;-66
2022/11/04 08:27:00;;;;;;;;;;;18.30;92.80;;;;;;5118661;28;19924;-66
2022/11/04 08:29:26;;;;;;;;;;;18.30;92.60;;;;;;5095806;28;20377;-66
2022/11/04 08:31:51;;;;;;;;;;;18.50;92.50;;;;;;5112673;28;19985;-66
2022/11/04 08:34:20;;;;;;;;;;;18.60;92.50;;;;;;5112616;28;19924;-66
2022/11/04 08:36:46;;;;;;;;;;;18.50;91.60;;;;;;5111549;28;19923;-66
2022/11/04 08:39:11;;;;;;;;;;;18.80;92.40;;;;;;5113965;28;19931;-67
2022/11/04 08:41:39;;;;;;;;;;;18.80;92.30;;;;;;5112956;28;20269;-66
2022/11/04 08:44:05;;;;;;;;;;;18.60;92.40;;;;;;5112661;28;19954;-66
2022/11/04 08:46:32;;;;;;;;;;;18.40;92.20;;;;;;5095922;28;19924;-66
2022/11/04 08:48:58;;;;;;;;;;;18.60;92.30;;;;;;5113549;28;19976;-67
2022/11/04 08:51:24;;;;;;;;;;;18.60;92.20;;;;;;5112868;28;20007;-66
2022/11/04 08:53:50;;;;;;;;;;;18.80;92.30;;;;;;5113035;28;19927;-66
2022/11/04 08:56:19;;;;;;;;;;;18.40;92.20;;;;;;5114007;28;20317;-67
2022/11/04 08:58:45;;;;;;;;;;;18.60;91.70;;;;;;5112526;28;19941;-67
2022/11/04 09:01:11;;;;;;;;;;;18.30;92.20;;;;;;5111924;28;20022;-67
2022/11/04 09:03:38;;;;;;;;;;;18.40;92.20;;;;;;5111840;28;20007;-67
2022/11/04 09:06:05;;;;;;;;;;;18.20;91.90;;;;;;5111909;28;20331;-66
2022/11/04 09:08:30;;;;;;;;;;;18.30;92.10;;;;;;5110457;28;19924;-67
2022/11/04 09:10:56;;;;;;;;;;;18.70;92.30;;;;;;5092405;28;19924;-67
2022/11/04 09:13:22;;;;;;;;;;;18.50;92.20;;;;;;5095764;28;19924;-66
2022/11/04 09:15:47;;;;;;;;;;;18.70;92.30;;;;;;5097068;28;19928;-67
2022/11/04 09:18:13;;;;;;;;;;;18.60;92.40;;;;;;5090422;28;19971;-66
2022/11/04 09:20:40;;;;;;;;;;;18.50;92.40;;;;;;5105144;28;19949;-67
2022/11/04 09:23:06;;;;;;;;;;;18.30;92.30;;;;;;5117048;28;19924;-67
2022/11/04 09:25:32;;;;;;;;;;;18.60;92.30;;;;;;5116481;28;19932;-67
2022/11/04 09:27:58;;;;;;;;;;;18.50;92.40;;;;;;5103019;28;19931;-67
2022/11/04 09:30:24;;;;;;;;;;;18.00;92.20;;;;;;5115989;28;19920;-66
2022/11/04 09:32:49;;;;;;;;;;;18.40;92.30;;;;;;5114957;28;19976;-67
2022/11/04 09:35:16;;;;;;;;;;;18.40;92.30;;;;;;5116806;28;19924;-66
2022/11/04 09:37:42;;;;;;;;;;;18.30;92.40;;;;;;5112533;28;20397;-66
2022/11/04 09:40:14;;;;;;;;;;;18.00;92.20;;;;;;5098743;28;19934;-67
2022/11/04 09:42:43;;;;;;;;;;;18.20;91.90;;;;;;5079892;28;20377;-67
2022/11/04 09:45:12;;;;;;;;;;;18.40;92.60;;;;;;5097188;28;19924;-67
2022/11/04 09:47:38;;;;;;;;;;;18.10;92.00;;;;;;5097517;28;19931;-66
2022/11/04 09:50:05;;;;;;;;;;;18.30;92.60;;;;;;5115567;28;19932;-66
2022/11/04 09:52:31;;;;;;;;;;;18.40;92.40;;;;;;5115276;28;19923;-67
2022/11/04 09:55:15;;;;;;;;;;;18.40;92.70;;;;;;5115062;28;19973;-67
2022/11/04 09:57:40;;;;;;;;;;;18.20;92.00;;;;;;5114048;28;19923;-67
2022/11/04 10:00:09;;;;;;;;;;;18.40;92.50;;;;;;5109866;28;20384;-67
2022/11/04 10:02:55;;;;;;;;;;;18.50;92.50;;;;;;5111443;28;19924;-69
2022/11/04 10:05:40;;;;;;;;;;;18.30;92.60;;;;;;5113123;28;19963;-67
2022/11/04 10:08:21;;;;;;;;;;;18.30;92.20;;;;;;5102745;28;19930;-67
2022/11/04 10:10:50;;;;;;;;;;;18.50;92.20;;;;;;5112887;28;19924;-68
2022/11/04 10:13:18;;;;;;;;;;;18.60;92.30;;;;;;5114798;28;19924;-69
2022/11/04 10:15:59;;;;;;;;;;;19.20;92.50;;;;;;5112760;28;20444;-69
2022/11/04 10:18:32;;;;;;;;;;;18.70;92.30;;;;;;5122902;27;19935;-70
2022/11/04 10:21:05;;;;;;;;;;;18.70;92.80;;;;;;5091231;28;20018;-69
2022/11/04 10:23:31;;;;;;;;;;;18.60;92.80;;;;;;5087839;28;19927;-71
2022/11/04 10:25:58;;;;;;;;;;;18.60;92.70;;;;;;5114361;28;19924;-69
2022/11/04 10:28:26;;;;;;;;;;;18.70;92.70;;;;;;5113332;28;19977;-69
2022/11/04 10:30:52;;;;;;;;;;;18.60;92.90;;;;;;5115633;28;19978;-71
2022/11/04 10:33:17;;;;;;;;;;;18.60;92.80;;;;;;5114460;28;19971;-70
2022/11/04 10:35:48;;;;;;;;;;;18.70;92.80;;;;;;5102215;28;19924;-69
2022/11/04 10:38:14;;;;;;;;;;;18.90;92.40;;;;;;5091209;28;19924;-69
2022/11/04 10:40:40;;;;;;;;;;;18.90;92.80;;;;;;5112657;28;19924;-69
2022/11/04 10:43:07;;;;;;;;;;;19.00;92.80;;;;;;5097215;28;19927;-69
2022/11/04 10:45:34;;;;;;;;;;;19.00;92.70;;;;;;5111490;28;19924;-68
2022/11/04 10:48:01;;;;;;;;;;;19.00;92.70;;;;;;5113946;28;19972;-69
2022/11/04 10:50:29;;;;;;;;;;;19.00;92.70;;;;;;5109987;28;19970;-70
2022/11/04 10:53:15;;;;;;;;;;;19.00;92.70;;;;;;5113540;28;19928;-70
2022/11/04 10:55:41;;;;;;;;;;;19.00;92.50;;;;;;5111931;28;19970;-69
2022/11/04 10:58:32;;;;;;;;;;;19.30;92.60;;;;;;5109186;28;19924;-69
2022/11/04 11:00:58;;;;;;;;;;;19.20;92.10;;;;;;5091354;28;19924;-69
2022/11/04 11:03:26;;;;;;;;;;;18.90;92.50;;;;;;5076902;28;19931;-70
2022/11/04 11:05:54;;;;;;;;;;;19.30;92.50;;;;;;5093769;28;19975;-70
2022/11/04 11:08:26;;;;;;;;;;;19.00;92.40;;;;;;5101897;28;19931;-68
2022/11/04 11:10:51;;;;;;;;;;;19.50;92.20;;;;;;5113630;28;19927;-69
2022/11/04 11:13:25;;;;;;;;;;;19.70;92.70;;;;;;5114518;28;19924;-69
2022/11/04 11:15:54;;;;;;;;;;;19.30;92.10;;;;;;5115216;28;20020;-68
2022/11/04 11:18:22;;;;;;;;;;;19.70;92.70;;;;;;5097187;28;19932;-69
2022/11/04 11:20:48;;;;;;;;;;;19.50;92.60;;;;;;5113396;28;20357;-69
2022/11/04 11:23:32;;;;;;;;;;;19.40;92.50;;;;;;5079950;28;19993;-69
2022/11/04 11:25:58;;;;;;;;;;;19.60;91.90;;;;;;5104380;28;20592;-70
2022/11/04 11:28:24;;;;;;;;;;;19.60;92.40;;;;;;5114231;28;19934;-69
2022/11/04 11:30:59;;;;;;;;;;;19.40;92.40;;;;;;5112446;28;19931;-70
2022/11/04 11:33:26;;;;;;;;;;;19.70;91.90;;;;;;5079556;28;19967;-69
2022/11/04 11:35:57;;;;;;;;;;;19.50;92.40;;;;;;5078845;28;19930;-69
2022/11/04 11:38:23;;;;;;;;;;;19.60;91.90;;;;;;5114636;28;20337;-69
2022/11/04 11:40:51;;;;;;;;;;;19.40;92.40;;;;;;5114754;28;19923;-69
2022/11/04 11:43:21;;;;;;;;;;;19.40;92.80;;;;;;5095056;28;19924;-69
2022/11/04 11:45:47;;;;;;;;;;;19.70;92.60;;;;;;5096203;28;20014;-69
2022/11/04 11:48:26;;;;;;;;;;;19.40;92.50;;;;;;5096073;28;20454;-69
2022/11/04 11:50:58;;;;;;;;;;;19.40;91.90;;;;;;5113453;28;20296;-69
2022/11/04 11:53:25;;;;;;;;;;;19.50;92.50;;;;;;5079654;28;19928;-68
2022/11/04 11:55:51;;;;;;;;;;;19.50;92.40;;;;;;5113034;28;19950;-69
2022/11/04 11:58:20;;;;;;;;;;;19.40;92.10;;;;;;5113715;28;19923;-70
2022/11/04 12:00:48;;;;;;;;;;;19.20;91.90;;;;;;5112691;28;19996;-69
2022/11/04 12:03:16;;;;;;;;;;;19.40;92.00;;;;;;5112897;28;20399;-69
2022/11/04 12:05:54;;;;;;;;;;;19.40;92.00;;;;;;5096261;28;19924;-69
2022/11/04 12:08:19;;;;;;;;;;;19.30;91.60;;;;;;5113033;28;20117;-69
2022/11/04 12:11:05;;;;;;;;;;;19.40;92.00;;;;;;5113126;28;19986;-69
2022/11/04 12:13:35;;;;;;;;;;;19.20;92.00;;;;;;5108128;28;19924;-70
2022/11/04 12:16:20;;;;;;;;;;;19.90;92.60;;;;;;5063140;28;19931;-69
2022/11/04 12:18:49;;;;;;;;;;;19.40;91.60;;;;;;5112425;28;19924;-69
2022/11/04 12:21:17;;;;;;;;;;;19.50;91.60;;;;;;5112714;28;19934;-69
2022/11/04 12:24:01;;;;;;;;;;;19.30;92.20;;;;;;5096147;28;19949;-69
2022/11/04 12:26:30;;;;;;;;;;;19.10;91.50;;;;;;5113706;28;20328;-69
2022/11/04 12:29:07;;;;;;;;;;;19.20;92.20;;;;;;5078645;28;19932;-69
2022/11/04 12:31:36;;;;;;;;;;;19.40;91.60;;;;;;5111854;28;19923;-69
2022/11/04 12:34:22;;;;;;;;;;;19.50;91.60;;;;;;5094858;28;20460;-69
2022/11/04 12:36:51;;;;;;;;;;;19.20;92.00;;;;;;5107828;28;20381;-66
2022/11/04 12:39:30;;;;;;;;;;;19.30;91.80;;;;;;5111737;28;19928;-68
2022/11/04 12:42:16;;;;;;;;;;;19.30;91.80;;;;;;5078703;28;19930;-67
2022/11/04 12:44:51;;;;;;;;;;;19.00;92.20;;;;;;5111404;28;19924;-69
2022/11/04 12:47:36;;;;;;;;;;;20.40;92.60;;;;;;5098613;28;19923;-69
2022/11/04 12:50:09;;;;;;;;;;;19.00;92.00;;;;;;5083786;28;20003;-67
2022/11/04 12:52:54;;;;;;;;;;;18.80;92.00;;;;;;5099440;28;19924;-68
2022/11/04 12:55:22;;;;;;;;;;;18.60;92.40;;;;;;5116343;28;20373;-68
2022/11/04 12:57:48;;;;;;;;;;;18.80;92.50;;;;;;5100485;28;19924;-68
2022/11/04 13:00:19;;;;;;;;;;;18.70;92.60;;;;;;5115880;28;19996;-68
2022/11/04 13:02:50;;;;;;;;;;;18.70;92.80;;;;;;5099504;28;19924;-69
2022/11/04 13:05:20;;;;;;;;;;;18.50;92.30;;;;;;5098835;28;19967;-69
2022/11/04 13:07:52;;;;;;;;;;;18.70;92.80;;;;;;5099193;28;19978;-68
2022/11/04 13:10:19;;;;;;;;;;;18.80;92.40;;;;;;5082077;28;19974;-69
2022/11/04 13:12:44;;;;;;;;;;;18.70;92.90;;;;;;5117145;28;19927;-68
2022/11/04 13:15:17;;;;;;;;;;;18.90;93.00;;;;;;5115946;28;19931;-68
2022/11/04 13:17:46;;;;;;;;;;;18.80;92.40;;;;;;5099377;28;20329;-68
2022/11/04 13:20:13;;;;;;;;;;;18.40;92.80;;;;;;5098833;28;19968;-68
2022/11/04 13:22:40;;;;;;;;;;;18.80;93.10;;;;;;5115879;28;20427;-68
2022/11/04 13:25:11;;;;;;;;;;;18.80;93.10;;;;;;5110646;28;20300;-67
2022/11/04 13:27:37;;;;;;;;;;;18.40;93.30;;;;;;5078390;28;19924;-67
2022/11/04 13:30:16;;;;;;;;;;;18.50;93.20;;;;;;5092988;28;19930;-68
2022/11/04 13:32:47;;;;;;;;;;;18.60;92.60;;;;;;5098717;28;19930;-67
2022/11/04 13:35:13;;;;;;;;;;;18.50;93.20;;;;;;5098697;28;19931;-67
2022/11/04 13:37:56;;;;;;;;;;;18.50;93.20;;;;;;5114990;28;20381;-67
2022/11/04 13:40:24;;;;;;;;;;;18.40;93.00;;;;;;5114931;28;19924;-68
2022/11/04 13:45:53;;;;;;;;;;;18.40;92.60;;;;;;5116607;28;20418;-67
2022/11/04 13:48:20;;;;;;;;;;;18.40;93.10;;;;;;5115392;28;19924;-66
2022/11/04 13:50:53;;;;;;;;;;;18.40;93.10;;;;;;5098591;28;20036;-67
2022/11/04 13:53:19;;;;;;;;;;;18.50;93.20;;;;;;5116045;28;19924;-68
2022/11/04 13:55:48;;;;;;;;;;;18.50;93.20;;;;;;5114874;28;19930;-67
2022/11/04 13:58:20;;;;;;;;;;;18.30;93.10;;;;;;5109874;28;19924;-68
2022/11/04 14:01:05;;;;;;;;;;;18.20;92.70;;;;;;5097768;28;19926;-69
2022/11/04 14:03:57;;;;;;;;;;;18.30;93.20;;;;;;5115733;28;19971;-68
2022/11/04 14:06:41;;;;;;;;;;;18.10;93.20;;;;;;5091235;28;19930;-67
2022/11/04 14:09:26;;;;;;;;;;;18.10;93.30;;;;;;5114660;28;20402;-68
2022/11/04 14:12:13;;;;;;;;;;;18.50;93.40;;;;;;5114939;28;19954;-68
2022/11/04 14:14:39;;;;;;;;;;;18.40;93.50;;;;;;5094679;28;19928;-69
2022/11/04 14:17:23;;;;;;;;;;;18.20;93.40;;;;;;5115581;28;20296;-69
2022/11/04 14:19:55;;;;;;;;;;;18.20;93.40;;;;;;5114594;28;19927;-69
2022/11/04 14:22:20;;;;;;;;;;;18.30;93.10;;;;;;5116153;28;19985;-69
2022/11/04 14:24:56;;;;;;;;;;;18.30;93.60;;;;;;5096692;28;20373;-68
2022/11/04 14:27:42;;;;;;;;;;;18.20;93.50;;;;;;5085388;28;20296;-69
2022/11/04 14:30:25;;;;;;;;;;;18.20;93.50;;;;;;5112059;28;20018;-69
2022/11/04 14:32:50;;;;;;;;;;;18.20;93.40;;;;;;5097590;28;20343;-68
2022/11/04 14:35:16;;;;;;;;;;;18.30;93.70;;;;;;5096969;28;19924;-68
2022/11/04 14:37:42;;;;;;;;;;;18.10;93.20;;;;;;5096428;28;19966;-69
2022/11/04 14:40:21;;;;;;;;;;;18.30;93.20;;;;;;5095921;28;19924;-69
2022/11/04 14:42:48;;;;;;;;;;;18.30;93.20;;;;;;5097825;28;19967;-69
2022/11/04 14:45:18;;;;;;;;;;;18.00;93.00;;;;;;5096343;28;19976;-68
2022/11/04 14:47:45;;;;;;;;;;;18.40;93.10;;;;;;5090831;28;20293;-68
2022/11/04 14:50:18;;;;;;;;;;;18.30;93.10;;;;;;5105056;28;19924;-69
2022/11/04 14:52:45;;;;;;;;;;;18.40;92.70;;;;;;5112860;28;19928;-68
2022/11/04 14:55:11;;;;;;;;;;;18.20;93.00;;;;;;5113286;28;19946;-69
2022/11/04 14:57:38;;;;;;;;;;;18.20;92.80;;;;;;5114018;28;19924;-69
2022/11/04 15:00:23;;;;;;;;;;;18.00;93.10;;;;;;5115505;28;19924;-69
2022/11/04 15:03:08;;;;;;;;;;;18.00;93.00;;;;;;5097815;28;20400;-67